Time;durP1;ratioP1;P1;durP2;ratioP2;P2;SDS_P1;SDS_P2;PMS_P1;PMS_P2;Temp;Humidity;BMP_temperature;BMP_pressure;BME280_temperature;BME280_humidity;BME280_pressure;Samples;Min_cycle;Max_cycle;Signal;HPM_P1;HPM_P2
2021/09/03 00:00:05;;;;;;;40.25;15.48;;;;;;;19.05;65.14;101912.00;4866443;28;118798;-93
2021/09/03 00:02:35;;;;;;;36.83;15.43;;;;;;;19.04;65.22;101907.69;4854559;28;120231;-93
2021/09/03 00:05:01;;;;;;;40.40;15.93;;;;;;;19.39;65.05;101953.03;4839941;28;123442;-91
2021/09/03 00:07:27;;;;;;;39.72;15.57;;;;;;;19.29;65.10;101930.13;4834549;28;119815;-93
2021/09/03 00:09:53;;;;;;;36.38;15.25;;;;;;;19.13;65.11;101907.59;4827839;28;121507;-93
2021/09/03 00:12:18;;;;;;;37.53;15.50;;;;;;;19.22;65.19;101922.19;4839680;28;123482;-93
2021/09/03 00:14:44;;;;;;;41.80;15.30;;;;;;;19.46;64.91;101958.22;4842208;28;119414;-93
2021/09/03 00:17:10;;;;;;;37.28;15.23;;;;;;;19.18;65.00;101909.72;4863516;28;119642;-93
2021/09/03 00:19:36;;;;;;;43.83;16.55;;;;;;;19.09;65.06;101887.56;4843514;28;118882;-91
2021/09/03 00:22:02;;;;;;;37.47;16.30;;;;;;;19.18;65.24;101893.78;4818642;28;121333;-93
2021/09/03 00:24:27;;;;;;;36.85;15.07;;;;;;;19.44;65.19;101937.69;4843649;28;122440;-92
2021/09/03 00:26:53;;;;;;;40.88;15.88;;;;;;;19.28;64.93;101906.34;4858347;28;120987;-93
2021/09/03 00:29:19;;;;;;;36.67;15.48;;;;;;;19.19;65.15;101880.66;4841390;28;121673;-92
2021/09/03 00:31:44;;;;;;;40.28;15.23;;;;;;;19.19;65.00;101889.78;4813366;28;123686;-93
2021/09/03 00:34:10;;;;;;;37.78;15.43;;;;;;;19.18;65.14;101876.34;4857918;28;118949;-92
2021/09/03 00:36:36;;;;;;;43.22;16.15;;;;;;;19.18;65.22;101874.31;4846766;28;121294;-93
2021/09/03 00:39:01;;;;;;;39.85;16.40;;;;;;;19.18;65.22;101874.31;4844383;28;123510;-93
2021/09/03 00:41:27;;;;;;;38.65;16.45;;;;;;;19.17;64.88;101870.00;4860336;28;120078;-92
2021/09/03 00:43:53;;;;;;;31.58;15.38;;;;;;;19.20;64.85;101871.06;4840046;28;123720;-93
2021/09/03 00:46:19;;;;;;;27.52;13.50;;;;;;;19.18;65.12;101865.22;4846917;28;118991;-93
2021/09/03 00:48:44;;;;;;;26.42;13.30;;;;;;;19.14;64.53;101878.53;4849174;28;122439;-93
2021/09/03 00:51:10;;;;;;;29.42;13.85;;;;;;;19.12;64.39;101865.09;4842201;28;120054;-93
2021/09/03 00:53:36;;;;;;;26.50;12.77;;;;;;;19.11;63.99;101877.47;4836917;28;118966;-93
2021/09/03 00:56:02;;;;;;;31.20;13.98;;;;;;;19.34;64.22;101903.63;4854314;28;120786;-92
2021/09/03 00:58:28;;;;;;;33.03;13.80;;;;;;;19.50;64.33;101925.41;4824776;28;122330;-92
2021/09/03 01:00:53;;;;;;;25.73;14.15;;;;;;;19.23;64.38;101884.00;4839465;28;119785;-93
2021/09/03 01:03:21;;;;;;;27.85;14.23;;;;;;;19.06;64.49;101855.16;4851065;28;119673;-92
2021/09/03 01:05:47;;;;;;;28.48;14.32;;;;;;;19.32;64.11;101886.66;4852484;28;119808;-92
2021/09/03 01:08:13;;;;;;;26.85;13.30;;;;;;;19.32;64.47;101886.66;4852126;28;118768;-92
2021/09/03 01:10:39;;;;;;;22.77;13.73;;;;;;;19.03;64.11;101842.97;4841605;28;122379;-92
2021/09/03 01:13:05;;;;;;;24.02;13.75;;;;;;;19.07;64.38;101845.56;4842661;28;118785;-93
2021/09/03 01:15:31;;;;;;;30.40;14.23;;;;;;;19.26;64.36;101877.47;4838008;28;121560;-92
2021/09/03 01:17:57;;;;;;;25.77;13.50;;;;;;;19.19;64.30;101866.75;4853241;28;119624;-92
2021/09/03 01:20:22;;;;;;;27.92;13.25;;;;;;;18.94;64.18;101829.97;4835116;28;119439;-91
2021/09/03 01:22:48;;;;;;;27.38;14.25;;;;;;;18.96;64.13;101833.03;4835664;28;121139;-94
2021/09/03 01:25:19;;;;;;;25.77;13.48;;;;;;;18.98;64.00;101830.53;4847873;28;119671;-92
2021/09/03 01:27:45;;;;;;;27.15;14.25;;;;;;;19.21;64.48;101870.56;4836401;28;121394;-92
2021/09/03 01:30:14;;;;;;;26.58;14.18;;;;;;;18.97;64.18;101823.44;4857540;28;123760;-92
2021/09/03 01:32:41;;;;;;;30.60;13.35;;;;;;;19.02;64.35;101831.09;4834756;28;120063;-93
2021/09/03 01:35:07;;;;;;;25.50;13.45;;;;;;;19.26;64.32;101855.22;4834879;28;121088;-93
2021/09/03 01:37:33;;;;;;;32.03;14.00;;;;;;;19.14;64.28;101845.16;4840606;28;121012;-92
2021/09/03 01:39:59;;;;;;;31.17;13.68;;;;;;;18.99;64.00;101822.94;4822809;28;119038;-92
2021/09/03 01:42:27;;;;;;;27.63;12.80;;;;;;;19.15;64.04;101838.34;4844886;28;122677;-93
2021/09/03 01:44:53;;;;;;;28.55;13.25;;;;;;;19.25;64.22;101853.69;4835229;28;120041;-91
2021/09/03 01:47:18;;;;;;;30.05;12.93;;;;;;;18.93;64.37;101813.75;4842876;28;120939;-91
2021/09/03 01:49:44;;;;;;;27.65;14.13;;;;;;;19.26;64.22;101855.22;4863306;28;120863;-92
2021/09/03 01:52:10;;;;;;;32.00;13.73;;;;;;;18.98;64.22;101813.84;4838787;28;119672;-91
2021/09/03 01:54:36;;;;;;;23.50;13.23;;;;;;;19.21;64.32;101842.00;4858306;28;121263;-92
2021/09/03 01:57:01;;;;;;;29.70;13.95;;;;;;;18.94;64.46;101801.38;4858765;28;122534;-91
2021/09/03 01:59:27;;;;;;;29.58;13.88;;;;;;;19.24;64.03;101838.25;4843783;28;118928;-94
2021/09/03 02:01:53;;;;;;;28.20;13.40;;;;;;;19.23;64.31;101836.72;4842486;28;122474;-91
2021/09/03 02:04:18;;;;;;;30.75;13.27;;;;;;;19.03;64.13;101804.03;4844363;28;122933;-91
2021/09/03 02:06:44;;;;;;;30.13;13.98;;;;;;;19.23;64.40;101839.50;4861601;28;121190;-93
2021/09/03 02:09:10;;;;;;;36.60;13.80;;;;;;;19.06;64.42;101807.88;4839975;28;122441;-93
2021/09/03 02:11:36;;;;;;;32.33;12.65;;;;;;;18.91;64.78;101775.28;4856983;28;119904;-92
2021/09/03 02:14:02;;;;;;;31.40;13.30;;;;;;;18.90;64.47;101770.22;4860197;28;120843;-93
2021/09/03 02:16:28;;;;;;;26.88;12.85;;;;;;;18.89;64.24;101772.22;4850094;28;122303;-92
2021/09/03 02:18:54;;;;;;;27.65;12.20;;;;;;;18.91;64.04;101780.84;4833662;28;119477;-91
2021/09/03 02:21:19;;;;;;;28.83;12.38;;;;;;;18.87;64.18;101763.59;4871408;28;119519;-94
2021/09/03 02:23:46;;;;;;;24.25;11.80;;;;;;;18.87;64.47;101773.97;4868447;28;120852;-94
2021/09/03 02:26:12;;;;;;;28.10;12.05;;;;;;;18.88;64.31;101786.59;4856975;28;120201;-93
2021/09/03 02:28:39;;;;;;;23.73;10.55;;;;;;;18.82;64.11;101769.09;4851350;28;122403;-92
2021/09/03 02:31:04;;;;;;;28.50;10.93;;;;;;;18.84;64.39;101775.69;4836044;28;119715;-92
2021/09/03 02:33:30;;;;;;;20.42;9.07;;;;;;;18.85;64.38;101771.66;4842943;28;121039;-90
2021/09/03 02:35:56;;;;;;;26.55;10.15;;;;;;;18.97;64.48;101784.50;4841932;28;120677;-93
2021/09/03 02:38:21;;;;;;;23.38;9.13;;;;;;;19.11;64.44;101805.16;4839175;28;120099;-92
2021/09/03 02:40:47;;;;;;;28.70;10.18;;;;;;;19.10;64.68;101797.31;4825510;28;122844;-92
2021/09/03 02:43:13;;;;;;;26.63;9.02;;;;;;;18.93;64.70;101761.69;4830408;28;122759;-92
2021/09/03 02:45:38;;;;;;;22.70;8.38;;;;;;;19.01;64.52;101776.72;4838352;28;120550;-92
2021/09/03 02:48:04;;;;;;;23.67;8.63;;;;;;;19.03;64.53;101773.47;4859402;28;121098;-94
2021/09/03 02:50:30;;;;;;;26.63;8.05;;;;;;;18.87;64.67;101754.50;4847633;28;119689;-93
2021/09/03 02:52:58;;;;;;;19.75;7.70;;;;;;;18.88;64.95;101751.25;4835650;28;119080;-92
2021/09/03 02:55:28;;;;;;;24.05;7.57;;;;;;;18.87;64.77;101741.38;4821982;28;122382;-92
2021/09/03 02:57:54;;;;;;;22.63;8.18;;;;;;;19.15;64.87;101788.28;4865930;28;119818;-92
2021/09/03 03:00:21;;;;;;;20.58;7.25;;;;;;;18.85;64.60;101735.53;4864101;28;118759;-92
2021/09/03 03:02:46;;;;;;;25.48;7.45;;;;;;;18.80;64.37;101739.00;4844745;28;122629;-92
2021/09/03 03:05:12;;;;;;;21.77;6.78;;;;;;;18.83;64.29;101746.38;4834951;28;118812;-93
2021/09/03 03:07:38;;;;;;;20.42;7.65;;;;;;;19.13;64.46;101785.97;4868258;28;121336;-90
2021/09/03 03:10:06;;;;;;;21.98;6.88;;;;;;;19.08;64.38;101789.47;4851000;28;122593;-93
2021/09/03 03:12:31;;;;;;;26.52;7.15;;;;;;;18.88;64.42;101762.34;4836826;28;121187;-92
2021/09/03 03:14:57;;;;;;;19.10;6.03;;;;;;;18.99;64.33;101764.56;4822119;28;121323;-94
2021/09/03 03:17:22;;;;;;;18.70;6.03;;;;;;;18.83;64.39;101743.59;4853851;28;118824;-93
2021/09/03 03:19:48;;;;;;;22.05;6.72;;;;;;;19.11;64.43;101774.59;4822722;28;121161;-93
2021/09/03 03:22:14;;;;;;;19.48;6.00;;;;;;;19.08;64.12;101767.22;4850035;28;121658;-92
2021/09/03 03:24:40;;;;;;;22.55;6.72;;;;;;;19.27;64.36;101795.56;4846354;28;119084;-91
2021/09/03 03:27:06;;;;;;;22.25;5.90;;;;;;;18.96;64.21;101752.38;4854641;28;119602;-92
2021/09/03 03:29:32;;;;;;;23.85;6.15;;;;;;;18.81;64.33;101723.06;4857424;28;119452;-94
2021/09/03 03:31:58;;;;;;;18.23;5.70;;;;;;;19.07;63.89;101753.78;4872281;28;118943;-92
2021/09/03 03:34:24;;;;;;;19.67;5.72;;;;;;;18.81;63.86;101718.28;4856698;28;122393;-93
2021/09/03 03:36:49;;;;;;;20.50;5.93;;;;;;;18.79;64.22;101715.22;4845818;28;118734;-93
2021/09/03 03:39:15;;;;;;;21.90;6.05;;;;;;;19.26;64.14;101782.91;4840753;28;120517;-91
2021/09/03 03:41:41;;;;;;;16.60;6.47;;;;;;;19.03;64.24;101748.44;4840615;28;122157;-93
2021/09/03 03:44:06;;;;;;;21.42;6.75;;;;;;;18.79;64.21;101715.22;4861454;28;118977;-93
2021/09/03 03:46:32;;;;;;;19.90;6.80;;;;;;;18.79;63.51;101712.44;4850917;28;121201;-93
2021/09/03 03:48:58;;;;;;;16.92;6.43;;;;;;;18.77;64.41;101720.50;4857113;28;122486;-92
2021/09/03 03:51:24;;;;;;;16.83;6.30;;;;;;;19.09;64.07;101762.41;4860935;28;118863;-93
2021/09/03 03:53:49;;;;;;;17.58;6.47;;;;;;;18.93;63.77;101736.69;4842062;28;122202;-92
2021/09/03 03:56:19;;;;;;;18.20;7.80;;;;;;;18.79;63.76;101723.56;4833550;28;119526;-93
2021/09/03 03:58:45;;;;;;;21.90;8.15;;;;;;;19.06;64.00;101753.03;4844220;28;121611;-92
2021/09/03 04:01:12;;;;;;;23.75;7.45;;;;;;;18.72;64.17;101701.75;4823509;28;121777;-93
2021/09/03 04:03:38;;;;;;;21.35;7.63;;;;;;;18.76;63.96;101713.41;4819931;28;119406;-92
2021/09/03 04:06:04;;;;;;;20.60;8.00;;;;;;;18.81;63.95;101712.72;4842414;28;121708;-92
2021/09/03 04:08:30;;;;;;;24.42;8.00;;;;;;;18.79;63.83;101715.22;4873164;28;119754;-92
2021/09/03 04:10:55;;;;;;;30.98;9.65;;;;;;;18.80;64.04;101719.53;4839493;28;119785;-92
2021/09/03 04:13:21;;;;;;;22.63;7.97;;;;;;;18.86;63.96;101731.50;4832038;28;121216;-92
2021/09/03 04:15:47;;;;;;;20.95;8.05;;;;;;;18.78;63.93;101715.72;4842291;28;120197;-92
2021/09/03 04:18:13;;;;;;;19.92;8.45;;;;;;;18.74;63.69;101713.13;4854211;28;119737;-93
2021/09/03 04:20:39;;;;;;;23.95;8.23;;;;;;;18.77;63.85;101709.38;4840449;28;120840;-92
2021/09/03 04:23:04;;;;;;;18.75;7.88;;;;;;;18.95;63.81;101734.19;4861486;28;119601;-92
2021/09/03 04:25:30;;;;;;;18.92;7.40;;;;;;;18.74;64.19;101699.25;4835840;28;120695;-92
2021/09/03 04:27:56;;;;;;;24.17;8.20;;;;;;;19.25;64.07;101770.25;4845226;28;121797;-93
2021/09/03 04:30:22;;;;;;;21.35;7.53;;;;;;;18.80;63.91;101711.19;4855406;28;118834;-93
2021/09/03 04:32:47;;;;;;;22.40;8.32;;;;;;;18.86;64.11;101712.03;4839845;28;121074;-92
2021/09/03 04:35:13;;;;;;;20.23;8.18;;;;;;;18.95;63.69;101731.41;4856711;28;121563;-93
2021/09/03 04:37:46;;;;;;;25.25;8.55;;;;;;;18.89;63.67;101732.53;4848280;28;121184;-93
2021/09/03 04:40:14;;;;;;;22.25;8.48;;;;;;;18.68;63.70;101698.38;4836038;28;122447;-93
2021/09/03 04:42:40;;;;;;;27.90;9.93;;;;;;;19.01;63.81;101746.13;4847204;28;119050;-92
2021/09/03 04:45:07;;;;;;;24.60;8.43;;;;;;;18.72;63.67;101689.84;4843462;28;121430;-93
2021/09/03 04:47:37;;;;;;;20.52;9.02;;;;;;;18.74;63.88;101693.69;4846939;28;121687;-92
2021/09/03 04:50:04;;;;;;;26.52;10.43;;;;;;;18.72;63.85;101696.19;4874556;28;119439;-92
2021/09/03 04:52:30;;;;;;;24.00;10.43;;;;;;;18.99;63.29;101745.84;4836173;28;122643;-93
2021/09/03 04:54:56;;;;;;;24.48;11.23;;;;;;;19.02;63.85;101746.91;4823236;28;123148;-93
2021/09/03 04:57:21;;;;;;;23.65;10.20;;;;;;;18.71;63.75;101691.88;4847287;28;120260;-93
2021/09/03 04:59:47;;;;;;;25.63;11.25;;;;;;;18.88;63.13;101715.09;4845719;28;121842;-92
2021/09/03 05:02:13;;;;;;;25.67;11.13;;;;;;;18.75;63.46;101706.31;4867942;28;118915;-92
2021/09/03 05:04:39;;;;;;;24.27;11.68;;;;;;;18.79;63.67;101706.13;4834095;28;121210;-91
2021/09/03 05:07:05;;;;;;;24.17;11.20;;;;;;;18.77;63.59;101714.94;4834862;28;122546;-92
2021/09/03 05:09:31;;;;;;;28.45;11.50;;;;;;;19.15;63.35;101754.91;4836813;28;120667;-93
2021/09/03 05:11:56;;;;;;;26.90;11.65;;;;;;;18.99;63.10;101742.31;4838625;28;123119;-95
2021/09/03 05:14:25;;;;;;;27.05;11.38;;;;;;;18.73;63.13;101702.50;4848362;28;120541;-94
2021/09/03 05:16:50;;;;;;;22.73;11.05;;;;;;;18.65;63.44;101702.88;4857266;28;120031;-93
2021/09/03 05:19:16;;;;;;;28.40;12.02;;;;;;;19.16;63.56;101773.13;4848195;28;121043;-94
2021/09/03 05:21:43;;;;;;;32.17;11.68;;;;;;;18.69;63.76;101711.00;4838958;28;120247;-93
2021/09/03 05:24:08;;;;;;;23.88;10.68;;;;;;;18.91;63.64;101730.81;4858755;28;121312;-93
2021/09/03 05:26:34;;;;;;;26.63;11.13;;;;;;;18.84;63.45;101724.88;4869706;28;119328;-93
2021/09/03 05:29:00;;;;;;;22.98;10.35;;;;;;;18.81;63.73;101715.50;4872321;28;118863;-95
2021/09/03 05:31:26;;;;;;;21.17;9.20;;;;;;;19.20;63.57;101773.72;4831410;28;119551;-94
2021/09/03 05:33:51;;;;;;;24.15;10.27;;;;;;;18.86;63.54;101725.94;4832370;28;122147;-94
2021/09/03 05:36:17;;;;;;;18.08;8.98;;;;;;;18.69;63.48;101711.81;4854494;28;119250;-92
2021/09/03 05:38:43;;;;;;;22.60;7.75;;;;;;;18.74;63.41;101706.81;4836552;28;121275;-93
2021/09/03 05:41:08;;;;;;;20.70;8.25;;;;;;;18.76;63.35;101716.19;4869583;28;123278;-95
2021/09/03 05:43:34;;;;;;;21.40;7.60;;;;;;;18.76;63.10;101695.97;4837981;28;119402;-94
2021/09/03 05:46:01;;;;;;;20.08;6.93;;;;;;;18.78;63.34;101693.47;4854900;28;122427;-94
2021/09/03 05:48:27;;;;;;;19.00;7.00;;;;;;;18.80;63.49;101699.31;4871964;28;119831;-95
2021/09/03 05:50:53;;;;;;;19.30;6.80;;;;;;;19.05;63.39;101734.03;4847853;28;121331;-94
2021/09/03 05:53:21;;;;;;;17.88;6.68;;;;;;;18.79;63.16;101681.88;4850954;28;122265;-95
2021/09/03 05:55:47;;;;;;;20.10;7.18;;;;;;;18.93;63.31;101700.53;4856786;28;118808;-91
2021/09/03 05:58:13;;;;;;;22.67;6.85;;;;;;;18.88;63.29;101687.28;4837470;28;121702;-94
2021/09/03 06:00:39;;;;;;;17.27;6.45;;;;;;;18.99;62.93;101700.59;4856375;28;119477;-93
2021/09/03 06:03:04;;;;;;;21.73;6.43;;;;;;;18.83;63.23;101681.66;4853436;28;121385;-95
2021/09/03 06:05:30;;;;;;;20.92;6.15;;;;;;;18.81;63.51;101673.81;4840328;28;120851;-93
2021/09/03 06:07:56;;;;;;;22.00;6.45;;;;;;;18.92;62.93;101684.31;4851602;28;120057;-94
2021/09/03 06:10:21;;;;;;;20.10;6.13;;;;;;;19.18;63.10;101732.47;4854063;28;122160;-93
2021/09/03 06:12:48;;;;;;;16.23;6.20;;;;;;;19.36;62.77;101758.47;4967666;23;121875;-74
2021/09/03 06:15:14;;;;;;;20.00;6.18;;;;;;;19.36;62.88;101759.25;4813100;28;121341;-76
2021/09/03 06:17:39;;;;;;;21.27;6.47;;;;;;;19.40;62.97;101753.47;4829227;28;122669;-74
2021/09/03 06:20:06;;;;;;;20.85;6.45;;;;;;;19.42;63.03;101745.44;4823581;28;120165;-75
2021/09/03 06:22:32;;;;;;;19.65;6.93;;;;;;;19.45;62.60;101747.25;4826566;28;120413;-74
2021/09/03 06:24:58;;;;;;;20.63;6.85;;;;;;;19.45;62.68;101736.09;4835845;28;120810;-74
2021/09/03 06:27:24;;;;;;;19.20;6.65;;;;;;;19.47;62.81;101737.16;4835316;28;120893;-74
2021/09/03 06:29:52;;;;;;;22.52;6.60;;;;;;;19.49;62.88;101733.88;4838321;28;119871;-75
2021/09/03 06:32:21;;;;;;;22.17;6.78;;;;;;;19.54;62.66;101731.19;4818027;28;119759;-78
2021/09/03 06:35:07;;;;;;;22.42;7.05;;;;;;;19.57;62.43;101727.44;4816795;28;121214;-75
2021/09/03 06:37:34;;;;;;;22.08;6.63;;;;;;;19.60;62.64;101726.44;4820067;28;121472;-74
2021/09/03 06:40:00;;;;;;;22.35;7.22;;;;;;;19.64;62.72;101734.59;4835800;28;121495;-77
2021/09/03 06:42:28;;;;;;;22.17;6.93;;;;;;;19.67;61.98;101732.88;4835414;28;120798;-74
2021/09/03 06:44:54;;;;;;;17.33;6.85;;;;;;;19.68;62.36;101731.59;4825848;28;120072;-73
2021/09/03 06:47:19;;;;;;;18.25;7.10;;;;;;;19.67;61.92;101724.50;4812973;28;120936;-76
2021/09/03 06:49:45;;;;;;;21.70;7.38;;;;;;;19.67;62.32;101722.50;4832710;28;120403;-74
2021/09/03 06:52:13;;;;;;;17.10;7.50;;;;;;;19.72;62.52;101723.81;4837594;28;120699;-74
2021/09/03 06:54:39;;;;;;;19.50;6.93;;;;;;;19.78;62.64;101721.84;4818965;28;120185;-74
2021/09/03 06:57:06;;;;;;;25.10;8.20;;;;;;;19.81;62.57;101732.00;4820694;28;120120;-74
2021/09/03 06:59:31;;;;;;;22.08;7.07;;;;;;;19.84;62.36;101731.00;4831353;28;122423;-74
2021/09/03 07:01:57;;;;;;;24.45;8.43;;;;;;;19.90;62.52;101731.84;4833060;28;121036;-78
2021/09/03 07:04:23;;;;;;;18.90;7.05;;;;;;;19.98;62.82;101735.72;4832290;28;121013;-76
2021/09/03 07:06:52;;;;;;;25.33;8.10;;;;;;;20.01;62.71;101726.38;4823701;28;121182;-74
2021/09/03 07:09:19;;;;;;;24.80;7.97;;;;;;;20.04;62.13;101719.84;4800037;28;121722;-74
2021/09/03 07:11:45;;;;;;;20.73;7.78;;;;;;;20.04;62.40;101708.69;4817564;28;121237;-77
2021/09/03 07:14:11;;;;;;;20.70;7.47;;;;;;;19.95;61.63;101700.50;4833415;28;120810;-76
2021/09/03 07:16:36;;;;;;;22.08;7.35;;;;;;;20.04;61.98;101707.94;4833146;28;120545;-74
2021/09/03 07:19:03;;;;;;;21.23;7.35;;;;;;;20.03;61.83;101709.19;4831987;28;122450;-74
2021/09/03 07:21:30;;;;;;;22.30;7.80;;;;;;;20.04;61.71;101711.47;4801391;28;120711;-76
2021/09/03 07:23:57;;;;;;;21.05;8.25;;;;;;;20.02;61.20;101708.44;4829857;28;120573;-74
2021/09/03 07:26:23;;;;;;;20.95;8.15;;;;;;;20.01;61.40;101706.13;4831392;28;120861;-76
2021/09/03 07:28:48;;;;;;;22.45;8.05;;;;;;;20.01;61.33;101706.13;4803201;28;120297;-73
2021/09/03 07:31:14;;;;;;;21.55;7.72;;;;;;;20.00;61.36;101702.59;4830064;28;121127;-75
2021/09/03 07:33:40;;;;;;;21.80;8.15;;;;;;;20.02;61.25;101702.09;4831821;28;121246;-77
2021/09/03 07:36:05;;;;;;;20.00;8.45;;;;;;;20.02;61.17;101705.63;4831935;28;119748;-74
2021/09/03 07:38:31;;;;;;;20.45;8.50;;;;;;;20.05;61.79;101712.25;4815976;28;119755;-73
2021/09/03 07:40:57;;;;;;;25.40;8.95;;;;;;;20.08;61.50;101722.41;4831767;28;119836;-73
2021/09/03 07:43:23;;;;;;;24.30;9.38;;;;;;;20.08;61.44;101714.03;4831558;28;119751;-75
2021/09/03 07:45:49;;;;;;;18.15;9.05;;;;;;;20.12;61.57;101709.81;4819823;28;122220;-77
2021/09/03 07:48:14;;;;;;;24.55;9.75;;;;;;;20.15;60.99;101710.84;4830970;28;124066;-74
2021/09/03 07:50:40;;;;;;;25.98;9.68;;;;;;;20.17;61.43;101709.09;4832037;28;120653;-75
2021/09/03 07:53:06;;;;;;;23.90;9.40;;;;;;;20.19;60.93;101712.13;4832524;28;121326;-75
2021/09/03 07:55:35;;;;;;;19.65;9.52;;;;;;;20.25;60.71;101723.31;4800860;28;120077;-78
2021/09/03 07:58:02;;;;;;;24.67;9.27;;;;;;;20.24;60.66;101724.59;4830938;28;120749;-73
2021/09/03 08:00:28;;;;;;;27.00;10.68;;;;;;;20.22;60.30;101713.94;4822480;28;121644;-77
2021/09/03 08:02:54;;;;;;;23.33;9.60;;;;;;;20.27;60.63;101725.63;4830383;28;120162;-77
2021/09/03 08:05:20;;;;;;;21.00;9.77;;;;;;;20.29;60.48;101711.97;4827967;28;121044;-74
2021/09/03 08:07:48;;;;;;;28.65;10.20;;;;;;;20.35;60.61;101710.00;4832727;28;121120;-74
2021/09/03 08:10:15;;;;;;;23.35;9.90;;;;;;;20.44;60.50;101715.41;4819354;28;120523;-75
2021/09/03 08:12:42;;;;;;;21.77;9.32;;;;;;;20.51;60.33;101717.75;4813783;28;120437;-74
2021/09/03 08:15:09;;;;;;;23.92;9.65;;;;;;;20.57;60.27;101710.19;4802578;28;121143;-75
2021/09/03 08:17:35;;;;;;;21.85;9.15;;;;;;;20.64;59.78;101703.41;4833175;28;120905;-74
2021/09/03 08:20:02;;;;;;;21.67;9.32;;;;;;;20.71;59.89;101697.38;4828660;28;121542;-74
2021/09/03 08:22:28;;;;;;;23.13;9.52;;;;;;;20.76;59.67;101705.75;4830557;28;122222;-74
2021/09/03 08:24:54;;;;;;;19.50;9.15;;;;;;;20.83;59.72;101701.78;4832031;28;120702;-77
2021/09/03 08:27:20;;;;;;;25.35;9.57;;;;;;;20.89;59.85;101708.13;4815590;28;121807;-74
2021/09/03 08:29:46;;;;;;;19.27;9.15;;;;;;;20.95;59.67;101697.78;4830385;28;120830;-73
2021/09/03 08:32:15;;;;;;;20.40;9.05;;;;;;;21.01;59.80;101695.00;4833790;28;122816;-73
2021/09/03 08:34:42;;;;;;;19.77;9.13;;;;;;;21.08;59.81;101700.13;4812477;28;121135;-74
2021/09/03 08:37:09;;;;;;;19.27;8.10;;;;;;;21.16;59.51;101703.97;4832022;28;124471;-75
2021/09/03 08:39:35;;;;;;;24.85;8.93;;;;;;;21.20;59.23;101693.34;4814800;28;120420;-75
2021/09/03 08:42:00;;;;;;;25.17;9.40;;;;;;;21.21;58.42;101702.47;4828992;28;120707;-76
2021/09/03 08:44:32;;;;;;;21.48;8.93;;;;;;;21.22;58.08;101704.75;4827526;28;120802;-74
2021/09/03 08:46:58;;;;;;;20.13;9.55;;;;;;;21.23;58.05;101700.69;4817592;28;121347;-74
2021/09/03 08:49:27;;;;;;;16.38;8.70;;;;;;;21.27;59.15;101701.25;4818492;28;123653;-74
2021/09/03 08:51:53;;;;;;;22.15;9.65;;;;;;;21.32;58.65;101697.75;4819827;28;122406;-77
2021/09/03 08:54:20;;;;;;;18.30;8.50;;;;;;;21.32;58.58;101697.75;4828003;28;121561;-75
2021/09/03 08:56:46;;;;;;;21.42;9.32;;;;;;;21.33;58.84;101699.28;4819081;28;122752;-74
2021/09/03 08:59:11;;;;;;;19.67;9.27;;;;;;;21.39;58.64;101699.28;4803715;28;124706;-75
2021/09/03 09:01:37;;;;;;;19.65;9.07;;;;;;;21.42;58.01;101713.00;4822042;28;122355;-76
2021/09/03 09:04:15;;;;;;;22.02;9.07;;;;;;;21.41;57.30;101707.91;4815316;28;126101;-74
2021/09/03 09:07:03;;;;;;;20.95;8.75;;;;;;;21.41;57.77;101696.75;4837750;28;121184;-76
2021/09/03 09:09:37;;;;;;;16.90;8.68;;;;;;;21.41;58.02;101689.16;4815196;28;120741;-74
2021/09/03 09:12:06;;;;;;;18.50;8.18;;;;;;;21.48;58.48;101701.84;4818160;28;122115;-76
2021/09/03 09:15:02;;;;;;;18.92;7.95;;;;;;;21.49;57.98;101692.22;4831250;28;121158;-73
2021/09/03 09:17:35;;;;;;;17.52;7.68;;;;;;;21.49;58.10;101683.84;4807146;28;122612;-76
2021/09/03 09:20:04;;;;;;;20.13;8.52;;;;;;;21.46;58.02;101682.06;4830208;28;121173;-77
2021/09/03 09:22:52;;;;;;;18.77;8.15;;;;;;;21.56;57.85;101699.34;4836332;28;121697;-76
2021/09/03 09:25:23;;;;;;;22.38;9.15;;;;;;;21.54;57.82;101679.56;4830151;28;121301;-77
2021/09/03 09:27:49;;;;;;;21.05;8.63;;;;;;;21.58;57.87;101680.84;4833710;28;121727;-73
2021/09/03 09:30:26;;;;;;;20.13;8.45;;;;;;;21.61;58.15;101685.41;4816412;28;123471;-73
2021/09/03 09:33:12;;;;;;;20.90;8.35;;;;;;;21.63;57.91;101680.09;4830403;28;123758;-76
2021/09/03 09:35:54;;;;;;;20.85;7.47;;;;;;;21.67;58.26;101682.63;4816880;28;120993;-75
2021/09/03 09:38:49;;;;;;;16.75;7.15;;;;;;;21.72;57.86;101690.25;4815697;28;124079;-74
2021/09/03 09:41:20;;;;;;;17.23;7.40;;;;;;;21.70;57.71;101678.81;4824547;28;121607;-74
2021/09/03 09:43:46;;;;;;;18.75;7.05;;;;;;;21.68;57.65;101676.53;4831435;28;121254;-76
2021/09/03 09:46:25;;;;;;;20.38;7.25;;;;;;;21.61;57.77;101665.09;4792515;28;121484;-73
2021/09/03 09:48:51;;;;;;;18.40;7.10;;;;;;;21.66;58.48;101669.94;4817278;28;122087;-78
2021/09/03 09:51:33;;;;;;;15.55;6.30;;;;;;;21.73;57.90;101680.59;4815418;28;126440;-75
2021/09/03 09:54:11;;;;;;;22.10;6.80;;;;;;;21.70;57.58;101670.44;4814635;28;123566;-76
2021/09/03 09:56:46;;;;;;;17.20;6.50;;;;;;;21.70;57.88;101671.19;4833812;28;124051;-74
2021/09/03 09:59:13;;;;;;;19.15;6.18;;;;;;;21.76;57.81;101671.22;4833011;28;122135;-73
2021/09/03 10:01:42;;;;;;;16.08;5.20;;;;;;;21.76;57.38;101668.41;4835795;28;121146;-75
2021/09/03 10:04:13;;;;;;;13.20;5.10;;;;;;;21.80;57.57;101673.78;4820618;28;122014;-76
2021/09/03 10:06:42;;;;;;;13.00;5.22;;;;;;;21.81;57.80;101667.69;4830070;28;122152;-76
2021/09/03 10:09:11;;;;;;;15.80;5.15;;;;;;;21.83;57.54;101675.56;4830334;28;121216;-73
2021/09/03 10:11:38;;;;;;;16.15;5.53;;;;;;;21.83;57.35;101673.53;4835324;28;122416;-73
2021/09/03 10:14:07;;;;;;;18.80;4.63;;;;;;;21.83;57.15;101667.94;4832151;28;122103;-74
2021/09/03 10:16:32;;;;;;;14.93;4.70;;;;;;;21.81;57.07;101675.31;4827590;28;121119;-75
2021/09/03 10:19:01;;;;;;;13.88;4.50;;;;;;;21.81;56.89;101667.69;4826601;28;122541;-74
2021/09/03 10:21:29;;;;;;;17.00;4.82;;;;;;;21.80;57.07;101662.59;4829266;28;121630;-74
2021/09/03 10:24:00;;;;;;;16.88;4.35;;;;;;;21.82;57.66;101662.88;4821589;28;127261;-77
2021/09/03 10:26:38;;;;;;;12.57;4.50;;;;;;;21.85;57.89;101668.19;4815058;28;122532;-75
2021/09/03 10:29:11;;;;;;;15.27;5.07;;;;;;;21.88;57.40;101669.97;4800964;28;124526;-75
2021/09/03 10:32:10;;;;;;;12.55;5.20;;;;;;;21.90;56.41;101667.44;4822912;28;123979;-75
2021/09/03 10:34:41;;;;;;;15.95;4.97;;;;;;;21.90;57.19;101670.22;4830797;28;121896;-72
2021/09/03 10:37:16;;;;;;;15.57;5.03;;;;;;;21.90;56.86;101669.47;4830480;28;121685;-76
2021/09/03 10:39:46;;;;;;;19.95;5.53;;;;;;;21.91;57.22;101680.13;4827110;28;121378;-75
2021/09/03 10:42:37;;;;;;;15.95;5.78;;;;;;;21.92;57.50;101664.91;4809954;28;123997;-74
2021/09/03 10:45:07;;;;;;;18.45;5.68;;;;;;;21.93;56.92;101672.00;4830378;28;121796;-74
2021/09/03 10:47:40;;;;;;;17.90;5.65;;;;;;;21.95;57.71;101669.47;4818390;28;121443;-77
2021/09/03 10:50:34;;;;;;;16.13;5.57;;;;;;;21.94;56.95;101662.34;4831036;28;122052;-75
2021/09/03 10:53:03;;;;;;;14.60;5.30;;;;;;;21.95;57.02;101668.69;4822625;28;121772;-78
2021/09/03 10:55:51;;;;;;;13.18;5.28;;;;;;;21.95;56.25;101663.88;4819865;28;121514;-76
2021/09/03 10:58:37;;;;;;;12.40;5.40;;;;;;;21.95;57.20;101665.91;4828090;28;124127;-73
2021/09/03 11:01:11;;;;;;;16.70;6.07;;;;;;;21.96;56.86;101662.59;4796941;28;121694;-73
2021/09/03 11:03:58;;;;;;;13.35;5.28;;;;;;;21.99;56.66;101658.78;4815974;28;124472;-73
2021/09/03 11:06:23;;;;;;;15.55;5.65;;;;;;;22.02;57.37;101651.47;4825412;28;121489;-76
2021/09/03 11:08:52;;;;;;;12.32;5.20;;;;;;;22.05;57.02;101654.03;4829965;28;121842;-76